createdAt,value
2018-01-10T00:01:41.642Z,100649.67
2018-01-10T00:06:50.459Z,100651.96
2018-01-10T00:11:52.588Z,100649.41
2018-01-10T00:16:53.895Z,100656.37
2018-01-10T00:21:55.995Z,100650.41
2018-01-10T00:26:58.043Z,100646.20
2018-01-10T00:31:59.374Z,100643.00
2018-01-10T00:37:00.702Z,100633.39
2018-01-10T00:42:02.023Z,100637.18
2018-01-10T00:47:03.355Z,100644.88
2018-01-10T00:52:04.985Z,100634.93
2018-01-10T00:57:06.322Z,100638.36
2018-01-10T01:02:07.687Z,100650.66
2018-01-10T01:07:08.996Z,100645.56
2018-01-10T01:12:10.327Z,100637.39
2018-01-10T01:17:12.431Z,100629.27
2018-01-10T01:22:14.494Z,100636.44
2018-01-10T01:27:15.832Z,100638.81
2018-01-10T01:32:17.882Z,100639.84
2018-01-10T01:37:19.222Z,100643.53
2018-01-10T01:42:21.267Z,100646.50
2018-01-10T01:47:22.593Z,100647.83
2018-01-10T01:52:23.951Z,100653.97
2018-01-10T01:57:25.288Z,100649.74
2018-01-10T02:02:26.639Z,100651.38
2018-01-10T02:07:27.989Z,100643.03
2018-01-10T02:12:30.074Z,100640.00
2018-01-10T02:17:31.452Z,100637.18
2018-01-10T02:22:32.818Z,100623.12
2018-01-10T02:27:34.677Z,100625.80
2018-01-10T02:32:36.737Z,100636.02
2018-01-10T02:37:38.040Z,100626.16
2018-01-10T02:42:39.356Z,100617.81
2018-01-10T02:47:40.718Z,100619.69
2018-01-10T02:52:42.045Z,100621.37
2018-01-10T02:57:43.397Z,100625.00
2018-01-10T03:02:44.727Z,100601.59
2018-01-10T03:07:46.039Z,100617.27
2018-01-10T03:12:47.357Z,100617.37
2018-01-10T03:17:48.655Z,100622.34
2018-01-10T03:22:49.998Z,100613.56
2018-01-10T03:27:51.331Z,100607.33
2018-01-10T03:32:59.491Z,100612.03
2018-01-10T03:38:00.820Z,100612.92
2018-01-10T03:43:02.154Z,100614.32
2018-01-10T03:48:03.476Z,100617.32
2018-01-10T03:53:05.578Z,100623.82
2018-01-10T03:58:06.875Z,100623.50
2018-01-10T04:03:08.274Z,100625.97
2018-01-10T04:08:09.600Z,100621.00
2018-01-10T04:13:10.916Z,100606.35
2018-01-10T04:18:12.295Z,100608.48
2018-01-10T04:23:13.642Z,100615.53
2018-01-10T04:28:14.958Z,100604.32
2018-01-10T04:33:16.275Z,100603.18
2018-01-10T04:38:17.631Z,100589.53
2018-01-10T04:43:18.964Z,100592.92
2018-01-10T04:48:20.274Z,100596.31
2018-01-10T04:53:22.338Z,100598.68
2018-01-10T04:58:23.658Z,100595.29
2018-01-10T05:03:25.993Z,100599.59
2018-01-10T05:08:28.084Z,100605.63
2018-01-10T05:13:29.428Z,100597.78
2018-01-10T05:18:31.121Z,100604.66
2018-01-10T05:23:32.408Z,100602.78
2018-01-10T05:28:33.910Z,100604.83
2018-01-10T05:33:36.026Z,100607.35
2018-01-10T05:38:37.336Z,100602.84
2018-01-10T05:43:38.892Z,100587.85
2018-01-10T05:48:40.219Z,100599.36
2018-01-10T05:53:41.565Z,100599.27
2018-01-10T05:58:42.896Z,100602.75
2018-01-10T06:03:45.020Z,100604.48
2018-01-10T06:08:47.062Z,100606.17
2018-01-10T06:13:48.440Z,100602.09
2018-01-10T06:18:52.215Z,100605.52
2018-01-10T06:23:53.622Z,100607.26
2018-01-10T06:28:55.501Z,100606.78
2018-01-10T06:33:56.827Z,100607.86
2018-01-10T06:38:58.133Z,100614.08
2018-01-10T06:44:00.199Z,100616.26
2018-01-10T06:49:01.653Z,100608.00
2018-01-10T06:54:04.107Z,100601.44
2018-01-10T06:59:05.823Z,100597.61
2018-01-10T07:04:07.900Z,100589.23
2018-01-10T07:09:09.256Z,100585.76
2018-01-10T07:14:10.564Z,100590.50
2018-01-10T07:19:11.903Z,100586.63
2018-01-10T07:24:14.016Z,100593.55
2018-01-10T07:29:15.332Z,100586.58
2018-01-10T07:34:16.693Z,100582.66
2018-01-10T07:39:18.009Z,100571.62
2018-01-10T07:44:19.370Z,100596.77
2018-01-10T07:49:20.687Z,100609.86
2018-01-10T07:54:22.043Z,100617.20
2018-01-10T07:59:23.362Z,100624.67
2018-01-10T08:04:25.430Z,100632.95
2018-01-10T08:09:26.755Z,100623.89
2018-01-10T08:14:28.836Z,100631.03
2018-01-10T08:19:30.171Z,100628.00
2018-01-10T08:24:31.559Z,100626.70
2018-01-10T08:29:32.924Z,100628.70
2018-01-10T08:34:35.067Z,100621.89
2018-01-10T08:39:36.388Z,100628.50
2018-01-10T08:44:37.708Z,100625.62
2018-01-10T08:49:39.759Z,100628.03
2018-01-10T08:54:41.113Z,100626.42
2018-01-10T08:59:43.171Z,100617.19
2018-01-10T09:04:44.472Z,100620.47
2018-01-10T09:09:45.813Z,100622.07
2018-01-10T09:14:47.142Z,100619.45
2018-01-10T09:19:48.446Z,100620.97
2018-01-10T09:24:49.764Z,100614.16
2018-01-10T09:29:51.077Z,100613.87
2018-01-10T09:34:52.416Z,100616.80
2018-01-10T09:39:53.776Z,100617.67
2018-01-10T09:44:55.077Z,100627.11
2018-01-10T09:49:56.391Z,100620.27
2018-01-10T09:54:57.731Z,100627.64
2018-01-10T09:59:59.047Z,100624.88
2018-01-10T10:05:00.393Z,100619.64
2018-01-10T10:10:01.854Z,100617.84
2018-01-10T10:15:03.412Z,100620.56
2018-01-10T10:20:04.768Z,100618.98
2018-01-10T10:25:06.820Z,100617.35
2018-01-10T10:30:08.181Z,100615.45
2018-01-10T10:35:09.516Z,100607.70
2018-01-10T10:40:10.940Z,100613.70
2018-01-10T10:45:13.003Z,100602.90
2018-01-10T10:50:14.318Z,100600.75
2018-01-10T10:55:15.639Z,100600.17
2018-01-10T11:00:16.967Z,100597.13
2018-01-10T11:05:27.762Z,100590.05
2018-01-10T11:10:29.087Z,100581.72
2018-01-10T11:15:30.433Z,100578.64
2018-01-10T11:20:31.754Z,100587.14
2018-01-10T11:25:33.087Z,100566.89
2018-01-10T11:30:34.417Z,100579.66
2018-01-10T11:35:35.755Z,100563.48
2018-01-10T11:40:38.010Z,100553.94
2018-01-10T11:45:39.388Z,100552.46
2018-01-10T11:50:41.224Z,100544.21
2018-01-10T11:55:43.335Z,100541.64
2018-01-10T12:00:44.687Z,100538.99
2018-01-10T12:05:46.019Z,100537.00
2018-01-10T12:10:47.328Z,100509.13
2018-01-10T12:15:49.462Z,100531.69
2018-01-10T12:20:50.827Z,100534.39
2018-01-10T12:25:53.027Z,100529.31
2018-01-10T12:30:54.367Z,100529.00
2018-01-10T12:35:56.223Z,100527.55
2018-01-10T12:40:58.546Z,100528.22
2018-01-10T12:46:00.280Z,100527.52
2018-01-10T12:51:01.636Z,100522.28
2018-01-10T12:56:03.879Z,100510.65
2018-01-10T13:01:05.451Z,100513.11
2018-01-10T13:06:07.508Z,100513.31
2018-01-10T13:11:09.136Z,100516.59
2018-01-10T13:16:10.915Z,100524.38
2018-01-10T13:21:13.417Z,100515.56
2018-01-10T13:26:14.755Z,100533.08
2018-01-10T13:31:16.121Z,100533.75
2018-01-10T13:36:17.448Z,100539.70
2018-01-10T13:41:18.902Z,100541.66
2018-01-10T13:46:20.279Z,100540.41
2018-01-10T13:51:21.645Z,100541.99
2018-01-10T13:56:23.061Z,100536.74
2018-01-10T14:01:24.413Z,100544.53
2018-01-10T14:06:26.088Z,100545.81
2018-01-10T14:11:27.466Z,100548.73
2018-01-10T14:16:29.807Z,100553.77
2018-01-10T14:21:31.375Z,100555.17
2018-01-10T14:26:33.444Z,100561.20
2018-01-10T14:31:34.771Z,100560.38
2018-01-10T14:36:36.820Z,100566.73
2018-01-10T14:41:38.131Z,100571.39
2018-01-10T14:46:39.771Z,100573.78
2018-01-10T14:51:41.833Z,100565.09
2018-01-10T14:56:43.182Z,100569.78
2018-01-10T15:01:44.504Z,100577.83
2018-01-10T15:06:45.849Z,100578.52
2018-01-10T15:11:47.935Z,100586.66
2018-01-10T15:16:50.033Z,100583.14
2018-01-10T15:21:51.408Z,100586.52
2018-01-10T15:26:52.723Z,100586.05
2018-01-10T15:31:54.033Z,100594.19
2018-01-10T15:36:56.220Z,100596.86
2018-01-10T15:41:58.300Z,100606.75
2018-01-10T15:46:59.619Z,100608.39
2018-01-10T15:52:02.025Z,100613.67
2018-01-10T15:57:03.366Z,100614.55
2018-01-10T16:02:04.711Z,100618.95
2018-01-10T16:07:06.033Z,100621.69
2018-01-10T16:12:07.333Z,100617.29
2018-01-10T16:17:08.730Z,100619.25
2018-01-10T16:22:10.048Z,100612.98
2018-01-10T16:27:11.363Z,100623.17
2018-01-10T16:32:13.440Z,100626.39
2018-01-10T16:37:14.907Z,100632.55
2018-01-10T16:42:16.219Z,100631.92
2018-01-10T16:47:17.563Z,100634.66
2018-01-10T16:52:18.936Z,100634.23
2018-01-10T16:57:20.365Z,100643.87
2018-01-10T17:02:21.831Z,100636.94
2018-01-10T17:07:23.239Z,100636.32
2018-01-10T17:12:24.578Z,100634.25
2018-01-10T17:17:25.879Z,100635.33
2018-01-10T17:22:27.952Z,100631.21
2018-01-10T17:27:29.282Z,100629.87
2018-01-10T17:32:31.335Z,100627.37
2018-01-10T17:37:32.662Z,100635.72
2018-01-10T17:42:33.992Z,100629.56
2018-01-10T17:47:35.329Z,100634.13
2018-01-10T17:52:36.653Z,100634.13
2018-01-10T17:57:37.971Z,100641.70
2018-01-10T18:02:39.358Z,100648.20
2018-01-10T18:07:40.680Z,100654.95
2018-01-10T18:12:42.039Z,100665.61
2018-01-10T18:17:43.387Z,100661.19
2018-01-10T18:22:45.474Z,100662.52
2018-01-10T18:27:46.785Z,100669.88
2018-01-10T18:32:48.823Z,100671.27
2018-01-10T18:37:50.157Z,100667.27
2018-01-10T18:42:51.519Z,100669.66
2018-01-10T18:47:52.851Z,100672.40
2018-01-10T18:52:54.184Z,100668.75
2018-01-10T18:57:55.517Z,100677.70
2018-01-10T19:02:56.982Z,100678.19
2018-01-10T19:07:58.370Z,100680.79
2018-01-10T19:12:59.672Z,100686.50
2018-01-10T19:18:01.912Z,100687.36
2018-01-10T19:23:03.320Z,100693.26
2018-01-10T19:28:05.392Z,100689.73
2018-01-10T19:33:06.708Z,100688.13
2018-01-10T19:38:08.847Z,100693.35
2018-01-10T19:43:10.299Z,100693.49
2018-01-10T19:48:11.629Z,100694.55
2018-01-10T19:53:13.866Z,100701.50
2018-01-10T19:58:15.237Z,100700.63
2018-01-10T20:03:16.607Z,100699.33
2018-01-10T20:08:17.987Z,100702.45
2018-01-10T20:13:21.210Z,100705.73
2018-01-10T20:18:23.626Z,100703.59
2018-01-10T20:23:25.061Z,100704.55
2018-01-10T20:28:26.436Z,100701.66
2018-01-10T20:33:27.848Z,100712.94
2018-01-10T20:38:29.202Z,100719.14
2018-01-10T20:43:31.940Z,100703.70
2018-01-10T20:48:33.301Z,100716.05
2018-01-10T20:53:35.386Z,100714.28
2018-01-10T20:58:36.850Z,100716.65
2018-01-10T21:03:38.411Z,100709.88
2018-01-10T21:08:40.467Z,100713.41
2018-01-10T21:13:41.823Z,100715.45
2018-01-10T21:18:43.120Z,100724.01
2018-01-10T21:23:44.477Z,100723.45
2018-01-10T21:28:46.523Z,100731.48
2018-01-10T21:33:47.915Z,100728.02
2018-01-10T21:38:49.226Z,100733.94
2018-01-10T21:43:51.596Z,100747.56
2018-01-10T21:48:53.032Z,100749.27
2018-01-10T21:53:54.407Z,100753.05
2018-01-10T21:58:55.733Z,100751.28
2018-01-10T22:03:57.329Z,100753.55
2018-01-10T22:08:58.715Z,100758.34
2018-01-10T22:14:00.039Z,100760.95
2018-01-10T22:19:01.404Z,100763.63
2018-01-10T22:24:07.679Z,100759.39
2018-01-10T22:29:09.109Z,100765.06
2018-01-10T22:34:12.172Z,100768.20
2018-01-10T22:39:13.505Z,100767.89
2018-01-10T22:44:14.887Z,100769.29
2018-01-10T22:49:16.304Z,100767.17
2018-01-10T22:54:18.397Z,100775.75
2018-01-10T22:59:19.723Z,100766.03
2018-01-10T23:04:21.072Z,100771.55
2018-01-10T23:09:24.563Z,100766.27
2018-01-10T23:19:42.571Z,100769.95
2018-01-10T23:24:43.987Z,100767.97
2018-01-10T23:29:45.289Z,100765.99
2018-01-10T23:34:46.606Z,100764.27
2018-01-10T23:39:47.912Z,100767.64
2018-01-10T23:44:49.212Z,100774.45
2018-01-10T23:49:50.514Z,100780.20
2018-01-10T23:54:52.559Z,100771.97
2018-01-10T23:59:53.851Z,100778.30
